Luton, Iowa
Current Conditions -  °F | °C
As of 10:52 PM on Friday 28 Nov 2014 (Local Time) from KSUX Reporting Station
Clear Clear  
Wind Chill: 24°   Ceiling: Unl
Heat Index: 29°   Visibility: 10mi
Dew Point: 26°   Wind: 5mph
Humidity: 89%   Direction: 210°SSW
Pressure: 29.59"   Gusts: NA
Location:  42.3446°N, 96.2663°W
Report Text: KSUX 290452Z 21004KT 10SM CLR M02/M03 A2959 RMK AO2 SLP029 T10171033
Loading
Personal Weather Stations






























Interactive Weather Map New forecast layout! Learn more

10-Day Weather Forecast

Advertisements
Track Severe Weather on mobile